Time;durP1;ratioP1;P1;durP2;ratioP2;P2;SDS_P1;SDS_P2;PMS_P1;PMS_P2;Temp;Humidity;BMP_temperature;BMP_pressure;BME280_temperature;BME280_humidity;BME280_pressure;Samples;Min_cycle;Max_cycle;Signal;HPM_P1;HPM_P2
2022/10/22 00:04:49;;;;;;;18.70;13.30;;;;;;;9.81;81.24;99506.65;215083;1279;140970;-74
2022/10/22 00:09:54;;;;;;;15.70;11.80;;;;;;;9.86;81.51;99508.13;215370;1277;139914;-77
2022/10/22 00:15:02;;;;;;;17.50;12.40;;;;;;;9.86;81.56;99510.54;215284;1277;142115;-80
2022/10/22 00:20:07;;;;;;;14.80;12.40;;;;;;;9.87;81.59;99508.20;215228;1277;141334;-79
2022/10/22 00:25:10;;;;;;;16.00;12.10;;;;;;;9.88;81.64;99509.92;214133;1278;141839;-69
2022/10/22 00:30:14;;;;;;;16.50;12.10;;;;;;;9.93;81.84;99521.48;214482;1277;142099;-72
2022/10/22 00:35:19;;;;;;;19.60;11.20;;;;;;;10.00;81.87;99524.19;215426;1277;141452;-74
2022/10/22 00:40:22;;;;;;;13.60;10.40;;;;;;;10.05;81.99;99531.70;215224;1277;140985;-74
2022/10/22 00:45:27;;;;;;;15.10;8.80;;;;;;;10.10;81.92;99539.30;214985;1277;142193;-75
2022/10/22 00:50:41;;;;;;;13.60;10.70;;;;;;;10.07;81.92;99529.71;214507;1278;140965;-74
2022/10/22 00:55:51;;;;;;;14.90;9.80;;;;;;;10.03;81.92;99530.53;215239;1277;140949;-75
2022/10/22 01:00:55;;;;;;;11.80;7.70;;;;;;;9.96;82.10;99532.63;214157;1277;140275;-75
2022/10/22 01:06:03;;;;;;;16.20;11.00;;;;;;;9.94;82.19;99518.32;214449;1277;141082;-75
2022/10/22 01:11:39;;;;;;;15.30;11.40;;;;;;;9.96;82.22;99517.92;214093;1277;140544;-78
2022/10/22 01:16:49;;;;;;;14.60;10.60;;;;;;;9.95;82.41;99500.33;215265;1278;221246;-76
2022/10/22 01:22:04;;;;;;;13.80;10.60;;;;;;;9.95;82.33;99499.75;212665;1277;140843;-74
2022/10/22 01:27:41;;;;;;;14.90;12.00;;;;;;;9.91;82.21;99501.27;215097;1278;141192;-78
2022/10/22 01:32:51;;;;;;;15.80;11.30;;;;;;;9.91;82.20;99491.52;214975;1278;141412;-76
2022/10/22 01:38:00;;;;;;;23.60;12.70;;;;;;;9.88;82.24;99482.23;215241;1278;142445;-78
2022/10/22 01:43:08;;;;;;;18.60;10.70;;;;;;;9.87;82.33;99483.77;215212;1278;141527;-72
2022/10/22 01:48:25;;;;;;;12.90;10.60;;;;;;;9.90;82.25;99472.00;215488;1277;140939;-72
2022/10/22 01:53:35;;;;;;;13.50;9.80;;;;;;;9.91;82.16;99465.52;215522;1277;140665;-69
2022/10/22 01:58:48;;;;;;;13.20;11.10;;;;;;;9.93;82.16;99461.95;214996;1278;140951;-74
2022/10/22 02:04:21;;;;;;;15.30;10.90;;;;;;;9.93;82.13;99464.77;215341;1277;140867;-70
2022/10/22 02:09:28;;;;;;;21.60;11.50;;;;;;;9.93;82.09;99449.38;212415;1279;151081;-69
2022/10/22 02:14:36;;;;;;;15.10;11.50;;;;;;;9.93;82.20;99447.09;213590;1278;141176;-69
2022/10/22 02:19:47;;;;;;;12.60;9.90;;;;;;;9.85;81.98;99438.63;214912;1278;140043;-70
2022/10/22 02:24:51;;;;;;;11.10;9.60;;;;;;;9.80;82.13;99435.55;214852;1278;140568;-70
2022/10/22 02:30:17;;;;;;;15.10;10.00;;;;;;;9.75;82.26;99430.21;214415;1278;140462;-69
2022/10/22 02:35:25;;;;;;;14.10;10.60;;;;;;;9.77;82.18;99423.33;215134;1277;141653;-70
2022/10/22 02:40:30;;;;;;;13.60;10.30;;;;;;;9.84;82.43;99430.52;213302;1277;142080;-67
2022/10/22 02:45:37;;;;;;;13.50;10.30;;;;;;;9.87;82.47;99462.20;214767;1277;140797;-67
2022/10/22 02:50:42;;;;;;;13.70;10.20;;;;;;;9.88;82.41;99493.54;215237;1277;141133;-71
2022/10/22 02:55:45;;;;;;;14.90;10.90;;;;;;;9.88;82.31;99497.73;215228;1278;141390;-71
2022/10/22 03:00:50;;;;;;;14.20;10.90;;;;;;;9.93;82.45;99479.36;212577;1278;141132;-71
2022/10/22 03:05:55;;;;;;;15.10;10.40;;;;;;;9.96;82.39;99476.34;215510;1278;141513;-72
2022/10/22 03:11:00;;;;;;;13.20;9.50;;;;;;;9.95;82.58;99474.40;215292;1278;140213;-71
2022/10/22 03:16:05;;;;;;;16.80;9.90;;;;;;;9.95;82.35;99458.17;215345;1277;140600;-71
2022/10/22 03:21:23;;;;;;;21.60;9.90;;;;;;;9.98;82.35;99467.05;214835;1278;141602;-72
2022/10/22 03:26:28;;;;;;;14.40;11.50;;;;;;;9.99;82.10;99454.98;214474;1279;140640;-76
2022/10/22 03:31:31;;;;;;;13.60;9.00;;;;;;;9.99;81.97;99436.30;215381;1277;140131;-77
2022/10/22 03:36:35;;;;;;;12.80;9.20;;;;;;;9.92;82.17;99422.59;215482;1277;139753;-78
2022/10/22 03:41:41;;;;;;;14.20;10.70;;;;;;;9.98;82.23;99429.20;215358;1277;140693;-78
2022/10/22 03:46:44;;;;;;;16.20;10.90;;;;;;;10.12;82.41;99437.80;215214;1277;143190;-74
2022/10/22 03:51:47;;;;;;;16.80;10.70;;;;;;;10.24;82.21;99439.55;215284;1278;140994;-72
2022/10/22 03:56:51;;;;;;;14.40;11.40;;;;;;;10.28;82.16;99445.00;215205;1277;140422;-70
2022/10/22 04:01:55;;;;;;;12.80;9.90;;;;;;;10.27;81.89;99454.73;215383;1277;141176;-70
2022/10/22 04:06:58;;;;;;;11.50;9.70;;;;;;;10.18;81.64;99454.93;215325;1277;140702;-73
2022/10/22 04:12:08;;;;;;;13.40;9.40;;;;;;;10.13;81.69;99450.34;215411;1278;141585;-73
2022/10/22 04:17:12;;;;;;;17.30;11.50;;;;;;;10.16;81.58;99454.11;215295;1277;142199;-73
2022/10/22 04:22:16;;;;;;;14.20;10.50;;;;;;;10.10;81.82;99448.53;215437;1278;141309;-70
2022/10/22 04:27:21;;;;;;;14.00;10.80;;;;;;;10.10;81.72;99447.57;215353;1277;140586;-74
2022/10/22 04:32:26;;;;;;;13.60;10.40;;;;;;;10.10;81.75;99444.00;215213;1278;141763;-74
2022/10/22 04:37:31;;;;;;;14.70;10.10;;;;;;;10.15;81.70;99441.38;213744;1278;141541;-71
2022/10/22 04:42:36;;;;;;;20.20;11.60;;;;;;;10.16;81.74;99439.11;215310;1278;140022;-72
2022/10/22 04:47:41;;;;;;;23.30;9.50;;;;;;;10.18;81.81;99434.89;215220;1278;433158;-77
2022/10/22 04:52:45;;;;;;;13.80;9.60;;;;;;;10.19;81.68;99418.71;213634;1278;139553;-76
2022/10/22 04:57:49;;;;;;;14.70;10.70;;;;;;;10.19;81.58;99421.91;215331;1277;142155;-73
2022/10/22 05:02:54;;;;;;;13.70;11.10;;;;;;;10.16;81.40;99425.48;215322;1278;140441;-78
2022/10/22 05:07:58;;;;;;;17.30;10.60;;;;;;;10.13;81.44;99428.06;213520;1278;140866;-75
2022/10/22 05:13:03;;;;;;;14.30;9.00;;;;;;;10.10;81.48;99418.59;214431;1279;140554;-81
2022/10/22 05:18:07;;;;;;;18.00;9.80;;;;;;;10.09;81.57;99426.89;215508;1276;141893;-81
2022/10/22 05:23:11;;;;;;;14.80;9.70;;;;;;;10.07;81.57;99422.45;215162;1279;140729;-80
2022/10/22 05:28:15;;;;;;;16.30;10.80;;;;;;;10.12;81.48;99423.38;215139;1277;141006;-76
2022/10/22 05:33:21;;;;;;;14.20;10.70;;;;;;;10.21;81.44;99425.10;215270;1278;142449;-78
2022/10/22 05:38:27;;;;;;;15.60;11.00;;;;;;;10.24;81.48;99429.70;215216;1278;140376;-76
2022/10/22 05:43:31;;;;;;;13.90;8.70;;;;;;;10.25;81.37;99431.41;215418;1277;140757;-74
2022/10/22 05:48:35;;;;;;;17.10;10.00;;;;;;;10.25;81.15;99445.80;215155;1280;142394;-75
2022/10/22 05:53:41;;;;;;;17.50;11.90;;;;;;;10.31;81.30;99451.45;215435;1278;141744;-77
2022/10/22 05:58:46;;;;;;;13.60;9.80;;;;;;;10.35;81.03;99459.21;215244;1278;141143;-74
2022/10/22 06:03:55;;;;;;;14.00;9.90;;;;;;;10.32;80.98;99465.27;215279;1278;141520;-74
2022/10/22 06:09:30;;;;;;;17.30;10.80;;;;;;;10.34;81.08;99481.34;215076;1278;140964;-74
2022/10/22 06:14:33;;;;;;;15.50;10.00;;;;;;;10.43;81.32;99502.39;215138;1278;140839;-80
2022/10/22 06:19:37;;;;;;;11.50;8.50;;;;;;;10.51;81.04;99521.77;215239;1278;141305;-75
2022/10/22 06:24:42;;;;;;;15.00;10.30;;;;;;;10.49;80.70;99531.46;213386;1278;141459;-73
2022/10/22 06:29:47;;;;;;;12.30;9.80;;;;;;;10.52;80.87;99512.77;215109;1277;140568;-72
2022/10/22 06:34:50;;;;;;;8.70;7.80;;;;;;;10.57;80.83;99492.36;214866;1278;141201;-72
2022/10/22 06:39:54;;;;;;;33.70;11.10;;;;;;;10.61;80.75;99491.99;214838;1281;161168;-71
2022/10/22 06:44:58;;;;;;;17.50;9.80;;;;;;;10.74;80.86;99482.40;215104;1277;140944;-74
2022/10/22 06:50:08;;;;;;;15.00;9.90;;;;;;;10.89;80.79;99487.45;214966;1278;141386;-77
2022/10/22 06:55:12;;;;;;;12.00;9.50;;;;;;;11.00;80.76;99489.44;214662;1277;139775;-74
2022/10/22 07:00:17;;;;;;;11.60;10.40;;;;;;;11.07;80.65;99493.05;215039;1277;139879;-73
2022/10/22 07:05:21;;;;;;;13.40;9.00;;;;;;;11.14;80.46;99503.13;214875;1277;140691;-70
2022/10/22 07:10:25;;;;;;;19.30;11.60;;;;;;;11.16;80.42;99508.61;214949;1277;140589;-73
2022/10/22 07:15:34;;;;;;;25.60;16.10;;;;;;;11.28;80.16;99512.67;214907;1277;140963;-74
2022/10/22 07:20:39;;;;;;;41.00;24.20;;;;;;;11.35;80.17;99514.11;214860;1278;141310;-76
2022/10/22 07:25:43;;;;;;;15.70;11.60;;;;;;;11.44;80.32;99527.05;214975;1277;140853;-71
2022/10/22 07:30:48;;;;;;;31.20;15.90;;;;;;;11.55;79.91;99529.95;214931;1277;140949;-73
2022/10/22 07:35:57;;;;;;;16.60;12.50;;;;;;;11.66;79.88;99537.73;215106;1277;151772;-70
2022/10/22 07:41:01;;;;;;;13.20;11.10;;;;;;;11.76;80.08;99533.79;215104;1277;140539;-78
2022/10/22 07:46:07;;;;;;;17.40;12.30;;;;;;;11.85;80.07;99531.61;215166;1277;139934;-75
2022/10/22 07:51:13;;;;;;;15.50;13.80;;;;;;;11.94;79.88;99534.95;215053;1277;140550;-72
2022/10/22 07:56:17;;;;;;;16.40;12.10;;;;;;;11.96;79.61;99535.53;215052;1277;140711;-78
2022/10/22 08:01:22;;;;;;;24.40;9.70;;;;;;;11.95;79.68;99536.63;214933;1279;139916;-75
2022/10/22 08:06:27;;;;;;;18.00;11.70;;;;;;;11.96;79.60;99551.54;215577;1277;140284;-76
2022/10/22 08:11:32;;;;;;;14.70;12.00;;;;;;;11.97;79.62;99553.11;215118;1277;140956;-72
2022/10/22 08:16:35;;;;;;;17.80;12.30;;;;;;;11.98;79.59;99557.67;215163;1277;140367;-73
2022/10/22 08:21:39;;;;;;;19.90;15.00;;;;;;;12.01;79.53;99563.68;215268;1277;139939;-72
2022/10/22 08:26:42;;;;;;;21.30;12.90;;;;;;;12.05;79.66;99563.11;215072;1277;139765;-75
2022/10/22 08:31:46;;;;;;;20.30;13.40;;;;;;;12.13;79.60;99564.27;215117;1277;141269;-77
2022/10/22 08:36:50;;;;;;;16.80;10.90;;;;;;;12.24;79.69;99564.88;214931;1277;142187;-74
2022/10/22 08:42:28;;;;;;;13.20;11.70;;;;;;;12.40;79.66;99567.63;215280;1277;141295;-74
2022/10/22 08:47:41;;;;;;;;;;;;;;;12.54;79.64;99560.55;215104;1277;142205;-71
2022/10/22 08:52:53;;;;;;;17.10;13.50;;;;;;;12.60;79.43;99550.13;215496;1279;150119;-79
2022/10/22 08:58:19;;;;;;;21.50;13.40;;;;;;;12.74;79.64;99542.74;215022;1277;142288;-77
2022/10/22 09:03:52;;;;;;;19.90;16.40;;;;;;;12.96;79.52;99545.34;215253;1277;140602;-74
2022/10/22 09:08:58;;;;;;;17.10;14.80;;;;;;;13.12;79.38;99544.52;215160;1277;141221;-75
2022/10/22 09:14:03;;;;;;;14.00;10.10;;;;;;;13.22;79.04;99555.31;214140;1277;140778;-77
2022/10/22 09:19:25;;;;;;;16.90;12.50;;;;;;;13.25;79.12;99569.69;215084;1277;140759;-79
2022/10/22 09:24:43;;;;;;;21.40;14.60;;;;;;;13.29;78.50;99575.29;214967;1277;142247;-75
2022/10/22 09:29:47;;;;;;;19.70;16.50;;;;;;;13.27;78.96;99581.70;214956;1277;140185;-74
2022/10/22 09:34:56;;;;;;;16.30;13.80;;;;;;;13.29;78.91;99585.41;214874;1277;140197;-82
2022/10/22 09:40:05;;;;;;;16.30;12.50;;;;;;;13.30;78.84;99577.65;215204;1277;141092;-74
2022/10/22 09:45:23;;;;;;;16.70;12.10;;;;;;;13.33;78.77;99560.39;215007;1278;140888;-72
2022/10/22 09:50:42;;;;;;;23.60;14.90;;;;;;;13.31;78.78;99552.83;215166;1277;140617;-74
2022/10/22 09:55:56;;;;;;;25.30;15.00;;;;;;;13.35;79.11;99574.91;215290;1277;140448;-73
2022/10/22 10:01:04;;;;;;;19.60;12.00;;;;;;;13.39;78.98;99583.52;215547;1277;141432;-72
2022/10/22 10:06:11;;;;;;;19.40;13.10;;;;;;;13.52;79.22;99586.75;215549;1277;142205;-73
2022/10/22 10:11:16;;;;;;;28.10;15.40;;;;;;;13.54;79.10;99586.07;215406;1277;140313;-72
2022/10/22 10:16:27;;;;;;;21.10;13.90;;;;;;;13.56;79.10;99580.08;215469;1277;140759;-73
2022/10/22 10:21:56;;;;;;;20.30;12.70;;;;;;;13.58;79.02;99570.62;215406;1277;141574;-72
2022/10/22 10:27:26;;;;;;;26.70;15.90;;;;;;;13.52;79.08;99574.38;214696;1277;140463;-73
2022/10/22 10:32:41;;;;;;;29.10;14.90;;;;;;;13.57;79.27;99564.30;215320;1277;141769;-72
2022/10/22 10:38:05;;;;;;;23.40;13.20;;;;;;;13.63;79.27;99572.38;215242;1277;139525;-72
2022/10/22 10:43:34;;;;;;;18.30;13.20;;;;;;;13.63;79.27;99581.27;215309;1277;141521;-71
2022/10/22 10:48:58;;;;;;;22.00;14.40;;;;;;;13.62;79.23;99582.27;214984;1275;140896;-73
2022/10/22 10:54:27;;;;;;;30.10;16.90;;;;;;;13.60;79.27;99580.92;215111;1277;141635;-73
2022/10/22 11:00:07;;;;;;;24.80;15.40;;;;;;;13.61;79.31;99576.69;215311;1277;142167;-74
2022/10/22 11:05:36;;;;;;;23.70;14.00;;;;;;;13.72;79.60;99568.41;213487;1276;141138;-73
2022/10/22 11:10:51;;;;;;;31.30;18.60;;;;;;;13.78;79.57;99561.56;214161;1277;142043;-73
2022/10/22 11:16:28;;;;;;;21.90;15.50;;;;;;;13.83;79.64;99565.46;213405;1279;141142;-72
2022/10/22 11:21:41;;;;;;;22.80;14.30;;;;;;;13.87;79.55;99561.83;214930;1277;141603;-72
2022/10/22 11:26:52;;;;;;;27.50;15.80;;;;;;;13.93;79.39;99555.88;214044;1277;142959;-72
2022/10/22 11:31:58;;;;;;;25.40;15.10;;;;;;;14.03;79.54;99557.00;213153;1277;141468;-74
2022/10/22 11:37:04;;;;;;;19.60;14.30;;;;;;;14.07;79.46;99553.25;215270;1277;141354;-74
2022/10/22 11:42:48;;;;;;;16.80;12.10;;;;;;;14.08;79.29;99555.02;215444;1277;140205;-73
2022/10/22 11:48:10;;;;;;;22.30;14.70;;;;;;;13.97;78.95;99554.88;215052;1279;141195;-72
2022/10/22 11:53:13;;;;;;;32.40;16.20;;;;;;;13.90;79.28;99545.45;215373;1277;140588;-73
2022/10/22 11:58:29;;;;;;;20.70;13.30;;;;;;;13.94;79.58;99546.13;215333;1277;141291;-73
2022/10/22 12:03:33;;;;;;;17.90;12.80;;;;;;;13.91;79.55;99544.50;215312;1277;140055;-74
2022/10/22 12:08:48;;;;;;;20.30;13.30;;;;;;;13.93;79.72;99558.17;215264;1277;140812;-74
2022/10/22 12:14:13;;;;;;;22.40;15.10;;;;;;;13.90;79.39;99561.21;215356;1277;141057;-75
2022/10/22 12:19:23;;;;;;;18.50;13.50;;;;;;;13.89;79.40;99560.30;215237;1277;154320;-76
2022/10/22 12:24:35;;;;;;;18.40;13.00;;;;;;;13.86;79.63;99555.25;215330;1277;140075;-73
2022/10/22 12:29:40;;;;;;;18.80;14.80;;;;;;;13.85;79.71;99556.68;215131;1278;139961;-73
2022/10/22 12:34:51;;;;;;;22.70;14.80;;;;;;;13.87;79.66;99548.44;214989;1277;141085;-73
2022/10/22 12:39:56;;;;;;;20.40;13.90;;;;;;;13.94;79.90;99545.48;214486;1277;141020;-73
2022/10/22 12:45:00;;;;;;;22.90;13.50;;;;;;;14.07;80.09;99544.19;214064;1277;141807;-74
2022/10/22 12:50:04;;;;;;;18.60;14.50;;;;;;;14.12;80.27;99544.05;215280;1277;140539;-74
2022/10/22 12:55:15;;;;;;;18.10;13.70;;;;;;;14.21;80.41;99542.86;215075;1277;141024;-74
2022/10/22 13:00:26;;;;;;;24.70;14.10;;;;;;;14.31;80.20;99546.87;215359;1277;141198;-74
2022/10/22 13:05:38;;;;;;;22.90;14.60;;;;;;;14.33;80.24;99550.41;213768;1278;141195;-73
2022/10/22 13:10:49;;;;;;;16.40;12.20;;;;;;;14.32;80.07;99545.41;214763;1279;141177;-74
2022/10/22 13:15:54;;;;;;;21.70;13.50;;;;;;;14.25;80.03;99540.45;215321;1277;140059;-74
2022/10/22 13:21:01;;;;;;;20.00;14.30;;;;;;;14.16;80.04;99535.59;215070;1278;140698;-74
2022/10/22 13:26:12;;;;;;;17.30;12.90;;;;;;;14.20;80.24;99536.25;215081;1277;140648;-73
2022/10/22 13:31:22;;;;;;;19.40;13.50;;;;;;;14.23;80.33;99539.05;214992;1277;140653;-72
2022/10/22 13:36:27;;;;;;;20.90;13.80;;;;;;;14.24;80.26;99538.68;214721;1280;141126;-73
2022/10/22 13:41:33;;;;;;;18.40;13.50;;;;;;;14.21;80.36;99537.22;215238;1277;139900;-73
2022/10/22 13:46:41;;;;;;;25.60;14.20;;;;;;;14.18;80.59;99529.91;214467;1277;139695;-74
2022/10/22 13:51:46;;;;;;;22.90;12.90;;;;;;;14.18;80.55;99521.88;213993;1279;141061;-74
2022/10/22 13:56:51;;;;;;;16.10;13.80;;;;;;;14.12;80.45;99518.68;214605;1277;140941;-72
2022/10/22 14:01:55;;;;;;;19.60;13.00;;;;;;;14.08;80.57;99518.30;215374;1277;141089;-72
2022/10/22 14:07:02;;;;;;;22.90;14.30;;;;;;;14.06;80.83;99524.94;215128;1277;140655;-74
2022/10/22 14:12:15;;;;;;;19.20;14.80;;;;;;;14.07;80.71;99523.88;215277;1277;139777;-73
2022/10/22 14:17:18;;;;;;;19.30;15.20;;;;;;;14.10;80.78;99522.00;215300;1277;140600;-73
2022/10/22 14:22:26;;;;;;;17.60;13.80;;;;;;;14.06;80.62;99521.67;215353;1277;142239;-73
2022/10/22 14:27:31;;;;;;;18.90;13.80;;;;;;;14.02;80.93;99524.99;215301;1276;141901;-73
2022/10/22 14:32:35;;;;;;;17.80;13.50;;;;;;;13.91;80.56;99527.78;215196;1277;140622;-73
2022/10/22 14:37:39;;;;;;;23.40;14.10;;;;;;;13.82;80.71;99530.25;215250;1277;140493;-73
2022/10/22 14:42:46;;;;;;;18.50;13.70;;;;;;;13.76;80.93;99533.82;215209;1277;140974;-73
2022/10/22 14:47:51;;;;;;;19.30;14.40;;;;;;;13.74;80.99;99530.76;215299;1277;140392;-73
2022/10/22 14:52:57;;;;;;;20.30;14.60;;;;;;;13.77;81.09;99531.73;215221;1277;141100;-70
2022/10/22 14:58:01;;;;;;;19.10;13.70;;;;;;;13.76;81.13;99527.82;214996;1277;161044;-73
2022/10/22 15:03:04;;;;;;;15.20;11.90;;;;;;;13.77;81.49;99534.30;214950;1277;140285;-72
2022/10/22 15:08:09;;;;;;;16.50;14.30;;;;;;;13.70;81.22;99535.89;215336;1277;141000;-73
2022/10/22 15:13:13;;;;;;;23.20;15.20;;;;;;;13.61;81.44;99541.52;215354;1277;141106;-73
2022/10/22 15:18:17;;;;;;;23.90;14.30;;;;;;;13.57;81.63;99540.02;212990;1277;143440;-73
2022/10/22 15:23:20;;;;;;;16.50;14.00;;;;;;;13.55;81.91;99546.29;213322;1279;142670;-71
2022/10/22 15:28:25;;;;;;;20.30;15.30;;;;;;;13.52;81.99;99547.75;214958;1278;141016;-73
2022/10/22 15:33:29;;;;;;;20.90;15.10;;;;;;;13.48;81.95;99553.30;215318;1278;140932;-74
2022/10/22 15:38:33;;;;;;;24.40;15.00;;;;;;;13.45;82.04;99553.94;214903;1278;139592;-73
2022/10/22 15:43:37;;;;;;;20.90;15.80;;;;;;;13.46;82.45;99555.59;214330;1277;140797;-73
2022/10/22 15:48:41;;;;;;;19.40;15.10;;;;;;;13.51;82.53;99561.61;214852;1279;160016;-73
2022/10/22 15:54:04;;;;;;;19.60;14.60;;;;;;;13.59;82.48;99562.11;215370;1277;141255;-74
2022/10/22 15:59:14;;;;;;;23.40;15.30;;;;;;;13.54;82.45;99565.77;215082;1278;140448;-74
2022/10/22 16:04:20;;;;;;;22.80;16.40;;;;;;;13.45;82.41;99570.23;215352;1278;139466;-73
2022/10/22 16:09:26;;;;;;;23.40;15.70;;;;;;;13.48;82.86;99569.52;215084;1277;141212;-73
2022/10/22 16:14:30;;;;;;;21.30;15.60;;;;;;;13.48;82.58;99569.05;214931;1278;141665;-73
2022/10/22 16:19:33;;;;;;;19.10;15.20;;;;;;;13.48;82.72;99577.98;214921;1279;142154;-73
2022/10/22 16:24:39;;;;;;;21.20;14.60;;;;;;;13.47;82.78;99584.85;215465;1277;150743;-73
2022/10/22 16:29:44;;;;;;;24.40;16.70;;;;;;;13.47;82.92;99589.67;215370;1277;140910;-69
2022/10/22 16:34:48;;;;;;;22.50;16.80;;;;;;;13.46;82.82;99599.35;214967;1279;140130;-73
2022/10/22 16:39:54;;;;;;;20.90;16.30;;;;;;;13.44;83.03;99605.73;214660;1277;141138;-75
2022/10/22 16:44:58;;;;;;;21.60;15.90;;;;;;;13.43;82.99;99609.25;213153;1277;140867;-74
2022/10/22 16:50:02;;;;;;;25.40;18.10;;;;;;;13.39;83.35;99614.20;214840;1278;140520;-74
2022/10/22 16:55:07;;;;;;;22.30;16.40;;;;;;;13.38;83.35;99616.48;214961;1278;140746;-74
2022/10/22 17:00:12;;;;;;;19.20;16.00;;;;;;;13.40;83.62;99619.02;215375;1278;140738;-70
2022/10/22 17:05:20;;;;;;;26.30;17.10;;;;;;;13.38;83.58;99623.08;214093;1278;247070;-67
2022/10/22 17:10:26;;;;;;;25.40;17.40;;;;;;;13.38;83.71;99621.84;215184;1277;141604;-75
2022/10/22 17:15:33;;;;;;;23.50;17.50;;;;;;;13.35;83.74;99622.26;215291;1277;140946;-74
2022/10/22 17:20:42;;;;;;;26.90;19.30;;;;;;;13.34;83.78;99624.23;215040;1278;141745;-74
2022/10/22 17:25:47;;;;;;;28.70;18.70;;;;;;;13.38;83.67;99626.73;215370;1277;141020;-74
2022/10/22 17:31:08;;;;;;;24.30;17.60;;;;;;;13.39;83.95;99630.00;215032;1278;141862;-73
2022/10/22 17:36:12;;;;;;;23.80;17.70;;;;;;;13.41;84.04;99633.02;214876;1278;140826;-74
2022/10/22 17:41:21;;;;;;;23.70;18.00;;;;;;;13.41;84.00;99637.72;214672;1278;141388;-74
2022/10/22 17:46:30;;;;;;;23.00;17.70;;;;;;;13.34;83.76;99641.09;213415;1278;139793;-74
2022/10/22 17:51:34;;;;;;;26.20;19.70;;;;;;;13.32;84.37;99644.92;215319;1277;139488;-74
2022/10/22 17:56:41;;;;;;;22.60;17.30;;;;;;;13.31;84.42;99648.02;214357;1278;141201;-74
2022/10/22 18:01:49;;;;;;;26.10;18.80;;;;;;;13.24;84.22;99649.70;213846;1278;141163;-70
2022/10/22 18:07:00;;;;;;;24.20;19.10;;;;;;;13.23;84.49;99651.42;215006;1279;140817;-74
2022/10/22 18:12:06;;;;;;;26.30;19.10;;;;;;;13.23;84.92;99655.11;215290;1278;140465;-75
2022/10/22 18:17:13;;;;;;;20.00;16.60;;;;;;;13.29;84.91;99659.61;215106;1279;140575;-74
2022/10/22 18:22:19;;;;;;;24.40;18.50;;;;;;;13.29;84.70;99662.23;214838;1279;140765;-75
2022/10/22 18:27:29;;;;;;;33.50;19.40;;;;;;;13.31;84.77;99664.88;215216;1278;141404;-75
2022/10/22 18:32:34;;;;;;;28.40;18.90;;;;;;;13.28;84.57;99669.30;215234;1279;140737;-74
2022/10/22 18:37:41;;;;;;;24.70;19.00;;;;;;;13.25;84.75;99675.85;215236;1278;140634;-75
2022/10/22 18:42:46;;;;;;;;;;;;;;;13.27;85.01;99677.73;215155;1278;141056;-74
2022/10/22 18:47:53;;;;;;;28.90;18.30;;;;;;;13.29;85.08;99672.98;215908;1278;128079;-74
2022/10/22 18:52:58;;;;;;;33.90;16.60;;;;;;;13.37;85.10;99675.23;215118;1278;141580;-74
2022/10/22 18:58:03;;;;;;;22.40;16.90;;;;;;;13.38;85.11;99681.72;214607;1278;141689;-72
2022/10/22 19:03:13;;;;;;;22.20;16.20;;;;;;;13.42;85.11;99689.58;215258;1278;140846;-73
2022/10/22 19:08:19;;;;;;;29.70;19.30;;;;;;;13.46;85.29;99689.05;214276;1277;140467;-73
2022/10/22 19:13:24;;;;;;;23.20;16.60;;;;;;;13.46;85.10;99692.42;214833;1278;140384;-73
2022/10/22 19:18:30;;;;;;;29.10;17.80;;;;;;;13.41;85.01;99703.01;214950;1278;140520;-74
2022/10/22 19:23:35;;;;;;;20.90;16.60;;;;;;;13.40;84.93;99719.65;215192;1278;141234;-74
2022/10/22 19:28:41;;;;;;;27.50;19.00;;;;;;;13.41;84.79;99728.34;214230;1279;140635;-77
2022/10/22 19:33:47;;;;;;;25.00;18.00;;;;;;;13.41;85.26;99729.58;214287;1278;141184;-76
2022/10/22 19:38:53;;;;;;;29.10;18.70;;;;;;;13.43;85.10;99736.92;213033;1278;141805;-75
2022/10/22 19:43:59;;;;;;;25.00;18.70;;;;;;;13.47;85.40;99737.52;213013;1279;143237;-76
2022/10/22 19:49:07;;;;;;;26.40;17.50;;;;;;;13.48;85.25;99744.02;214761;1277;140829;-76
2022/10/22 19:54:19;;;;;;;30.60;18.80;;;;;;;13.46;85.39;99750.26;215148;1278;140956;-73
2022/10/22 19:59:26;;;;;;;27.30;17.10;;;;;;;13.47;85.52;99753.55;213280;1279;141302;-73
2022/10/22 20:04:35;;;;;;;28.70;18.10;;;;;;;13.46;85.40;99761.02;212598;1279;143423;-80
2022/10/22 20:09:43;;;;;;;28.90;17.80;;;;;;;13.48;85.47;99773.58;215055;1278;163314;-80
2022/10/22 20:14:48;;;;;;;28.20;18.40;;;;;;;13.46;85.38;99780.37;213312;1278;142368;-86
2022/10/22 20:19:55;;;;;;;26.50;17.20;;;;;;;13.40;85.40;99785.30;215117;1277;142955;-82
2022/10/22 20:25:00;;;;;;;23.70;15.70;;;;;;;13.38;85.72;99790.42;215020;1278;141678;-79
2022/10/22 20:30:06;;;;;;;27.10;16.30;;;;;;;13.39;85.76;99798.30;214533;1278;142977;-76
2022/10/22 20:35:13;;;;;;;29.00;15.80;;;;;;;13.48;86.21;99798.60;215036;1278;141874;-75
2022/10/22 20:40:20;;;;;;;41.00;19.80;;;;;;;13.57;86.07;99795.91;215129;1278;140785;-75
2022/10/22 20:45:26;;;;;;;28.30;14.70;;;;;;;13.60;85.65;99797.06;215202;1278;140991;-73
2022/10/22 20:50:31;;;;;;;26.60;15.90;;;;;;;13.59;85.72;99802.46;215294;1277;141264;-72
2022/10/22 20:55:36;;;;;;;24.90;14.10;;;;;;;13.62;85.87;99804.16;215146;1277;142043;-72
2022/10/22 21:00:41;;;;;;;25.80;15.90;;;;;;;13.66;85.82;99804.47;215257;1277;141286;-74
2022/10/22 21:05:47;;;;;;;31.80;16.90;;;;;;;13.70;86.06;99809.07;215350;1277;142191;-74
2022/10/22 21:10:51;;;;;;;25.50;15.50;;;;;;;13.75;86.09;99819.88;213398;1278;140905;-76
2022/10/22 21:15:55;;;;;;;32.20;17.40;;;;;;;13.71;85.78;99821.88;215198;1277;141122;-75
2022/10/22 21:20:59;;;;;;;28.50;17.70;;;;;;;13.66;86.06;99816.80;215098;1277;140111;-73
2022/10/22 21:26:04;;;;;;;27.60;16.20;;;;;;;13.58;85.87;99821.35;214648;1277;140813;-76
2022/10/22 21:31:09;;;;;;;28.60;18.60;;;;;;;13.58;86.12;99825.80;214951;1277;140873;-78
2022/10/22 21:36:13;;;;;;;34.10;18.70;;;;;;;13.60;86.24;99821.28;215120;1277;140856;-79
2022/10/22 21:41:23;;;;;;;29.50;18.40;;;;;;;13.62;86.15;99829.77;214744;1277;141898;-80
2022/10/22 21:46:27;;;;;;;26.20;16.10;;;;;;;13.66;86.37;99830.72;214978;1278;141311;-80
2022/10/22 21:51:35;;;;;;;37.00;20.30;;;;;;;13.70;86.35;99838.95;214974;1277;141036;-75
2022/10/22 21:56:39;;;;;;;32.60;20.90;;;;;;;13.75;86.46;99835.46;214921;1277;140527;-77
2022/10/22 22:01:43;;;;;;;30.50;19.50;;;;;;;13.77;86.35;99839.81;214877;1277;140271;-76
2022/10/22 22:06:46;;;;;;;36.40;19.00;;;;;;;13.82;86.31;99841.59;215194;1277;140796;-73
2022/10/22 22:11:50;;;;;;;31.10;19.10;;;;;;;13.89;86.49;99845.98;215404;1277;142110;-74
2022/10/22 22:16:56;;;;;;;32.90;20.50;;;;;;;13.88;86.30;99847.48;212578;1277;141263;-73
2022/10/22 22:22:00;;;;;;;35.30;21.20;;;;;;;13.87;86.48;99853.42;215284;1277;139539;-75
2022/10/22 22:27:04;;;;;;;42.00;23.00;;;;;;;13.87;86.46;99849.61;215080;1277;140901;-78
2022/10/22 22:32:09;;;;;;;36.50;22.40;;;;;;;13.85;86.49;99853.41;214951;1277;141612;-78
2022/10/22 22:37:13;;;;;;;43.30;25.30;;;;;;;13.87;86.66;99855.09;215013;1277;141897;-79
2022/10/22 22:42:17;;;;;;;49.60;25.90;;;;;;;13.91;86.56;99854.59;215196;1277;140609;-79
2022/10/22 22:47:20;;;;;;;36.60;22.50;;;;;;;13.97;86.72;99861.20;215241;1277;141730;-78
2022/10/22 22:52:25;;;;;;;43.00;24.80;;;;;;;14.01;86.49;99859.52;215417;1277;140803;-68
2022/10/22 22:57:29;;;;;;;37.00;24.20;;;;;;;14.07;86.42;99865.88;215307;1277;141183;-74
2022/10/22 23:02:33;;;;;;;36.30;24.50;;;;;;;14.09;86.49;99861.29;215188;1277;141539;-73
2022/10/22 23:07:37;;;;;;;33.90;23.00;;;;;;;14.11;86.58;99862.05;214864;1277;141105;-74
2022/10/22 23:12:42;;;;;;;40.10;24.70;;;;;;;14.14;86.55;99869.11;215046;1277;141520;-77